Time;durP1;ratioP1;P1;durP2;ratioP2;P2;SDS_P1;SDS_P2;PMS_P1;PMS_P2;Temp;Humidity;BMP_temperature;BMP_pressure;BME280_temperature;BME280_humidity;BME280_pressure;Samples;Min_cycle;Max_cycle;Signal;HPM_P1;HPM_P2
2022/03/09 00:00:08;;;;;;;;;;;6.70;99.90;7.20;99942.00;;;;345909;28;82421;-85
2022/03/09 00:00:20;;;;;;;;;;;6.70;99.90;7.20;99952.00;;;;346924;28;90902;-85
2022/03/09 00:00:32;;;;;;;;;;;6.70;99.90;7.30;99952.00;;;;347255;28;82550;-85
2022/03/09 00:00:44;;;;;;;;;;;6.70;99.90;7.20;99953.00;;;;346817;28;90125;-85
2022/03/09 00:00:55;;;;;;;;;;;6.70;99.90;7.20;99948.00;;;;345910;28;83521;-85
2022/03/09 00:01:07;;;;;;;;;;;6.70;99.90;7.20;99954.00;;;;345584;28;89330;-85
2022/03/09 00:01:19;;;;;;;;;;;6.70;99.90;7.20;99949.00;;;;345911;28;83396;-85
2022/03/09 00:01:32;;;;;;;;;;;6.70;99.90;7.20;99954.00;;;;344890;28;89230;-85
2022/03/09 00:01:44;;;;;;;;;;;6.70;99.90;7.20;99956.00;;;;345858;28;82510;-85
2022/03/09 00:01:56;;;;;;;;;;;6.70;99.90;7.20;99953.00;;;;345455;28;88912;-85
2022/03/09 00:02:08;;;;;;;;;;;6.70;99.90;7.20;99953.00;;;;347382;28;83279;-85
2022/03/09 00:02:20;;;;;;;;;;;6.70;99.90;7.20;99950.00;;;;347057;28;87729;-85
2022/03/09 00:02:32;;;;;;;;;;;6.70;99.90;7.20;99952.00;;;;347199;28;83564;-85
2022/03/09 00:02:44;;;;;;;;;;;6.70;99.90;7.20;99950.00;;;;346810;28;90602;-85
2022/03/09 00:02:56;;;;;;;;;;;6.70;99.90;7.20;99959.00;;;;348837;27;83397;-85
2022/03/09 00:03:08;;;;;;;;;;;6.70;99.90;7.10;99954.00;;;;348222;27;90929;-85
2022/03/09 00:03:20;;;;;;;;;;;6.70;99.90;7.10;99960.00;;;;348672;27;82506;-85
2022/03/09 00:03:32;;;;;;;;;;;6.70;99.90;7.20;99955.00;;;;348184;27;90895;-85
2022/03/09 00:03:44;;;;;;;;;;;6.70;99.90;7.20;99952.00;;;;347271;28;82456;-85
2022/03/09 00:03:56;;;;;;;;;;;6.70;99.90;7.20;99956.00;;;;346817;28;91399;-85
2022/03/09 00:04:08;;;;;;;;;;;6.70;99.90;7.20;99957.00;;;;347290;28;83411;-85
2022/03/09 00:04:20;;;;;;;;;;;6.70;99.90;7.20;99956.00;;;;346911;28;88989;-85
2022/03/09 00:04:31;;;;;;;;;;;6.70;99.90;7.20;99958.00;;;;346913;28;83434;-85
2022/03/09 00:04:43;;;;;;;;;;;6.70;99.90;7.20;99953.00;;;;345395;28;89578;-85
2022/03/09 00:04:55;;;;;;;;;;;6.70;99.90;7.20;99955.00;;;;345854;28;83496;-85
2022/03/09 00:05:08;;;;;;;;;;;6.70;99.90;7.20;99958.00;;;;346979;28;89337;-85
2022/03/09 00:05:20;;;;;;;;;;;6.70;99.90;7.20;99959.00;;;;344362;28;83989;-85
2022/03/09 00:05:31;;;;;;;;;;;6.70;99.90;7.10;99959.00;;;;345325;28;89242;-85
2022/03/09 00:05:43;;;;;;;;;;;6.60;99.90;7.20;99955.00;;;;345920;28;83321;-85
2022/03/09 00:05:55;;;;;;;;;;;6.60;99.90;7.30;99953.00;;;;345377;28;91639;-85
2022/03/09 00:06:08;;;;;;;;;;;6.70;99.90;7.30;99961.00;;;;344690;28;82415;-85
2022/03/09 00:06:20;;;;;;;;;;;6.70;99.90;7.30;99962.00;;;;344248;28;88094;-85
2022/03/09 00:06:32;;;;;;;;;;;6.70;99.90;7.30;99957.00;;;;344561;28;83376;-85
2022/03/09 00:06:44;;;;;;;;;;;6.70;99.90;7.20;99964.00;;;;345468;28;90430;-85
2022/03/09 00:06:56;;;;;;;;;;;6.70;99.90;7.20;99960.00;;;;345918;28;82562;-85
2022/03/09 00:07:08;;;;;;;;;;;6.70;99.90;7.20;99965.00;;;;344204;28;88904;-85
2022/03/09 00:07:20;;;;;;;;;;;6.70;99.90;7.30;99957.00;;;;344581;28;83553;-85
2022/03/09 00:07:32;;;;;;;;;;;6.70;99.90;7.20;99960.00;;;;343615;28;89205;-85
2022/03/09 00:07:45;;;;;;;;;;;6.70;99.90;7.30;99961.00;;;;344396;28;83397;-86
2022/03/09 00:07:57;;;;;;;;;;;6.70;99.90;7.20;99967.00;;;;345371;28;89786;-85
2022/03/09 00:08:10;;;;;;;;;;;6.70;99.90;7.20;99955.00;;;;347414;28;83331;-85
2022/03/09 00:08:22;;;;;;;;;;;6.70;99.90;7.20;99956.00;;;;346913;28;89541;-85
2022/03/09 00:08:34;;;;;;;;;;;6.60;99.90;7.20;99961.00;;;;347186;28;83439;-85
2022/03/09 00:08:45;;;;;;;;;;;6.60;99.90;7.10;99960.00;;;;346788;28;90173;-85
2022/03/09 00:08:57;;;;;;;;;;;6.60;99.90;7.20;99960.00;;;;345968;28;83452;-85
2022/03/09 00:09:11;;;;;;;;;;;6.70;99.90;7.30;99955.00;;;;345438;28;90920;-85
2022/03/09 00:09:23;;;;;;;;;;;6.60;99.90;7.30;99968.00;;;;347212;27;83486;-85
2022/03/09 00:09:35;;;;;;;;;;;6.70;99.90;7.20;99958.00;;;;346941;28;89116;-85
2022/03/09 00:09:46;;;;;;;;;;;6.70;99.90;7.20;99958.00;;;;347411;28;82397;-85
2022/03/09 00:09:58;;;;;;;;;;;6.70;99.90;7.20;99953.00;;;;348262;27;89587;-84
2022/03/09 00:10:10;;;;;;;;;;;6.60;99.90;7.20;99966.00;;;;348755;27;83371;-85
2022/03/09 00:10:22;;;;;;;;;;;6.70;99.90;7.20;99961.00;;;;346675;28;89283;-85
2022/03/09 00:10:33;;;;;;;;;;;6.70;99.90;7.10;99961.00;;;;348469;27;83447;-85
2022/03/09 00:10:47;;;;;;;;;;;6.70;99.90;7.20;99967.00;;;;346771;28;90196;-85
2022/03/09 00:10:59;;;;;;;;;;;6.70;99.90;7.20;99962.00;;;;347305;28;82508;-85
2022/03/09 00:11:11;;;;;;;;;;;6.70;99.90;7.20;99958.00;;;;346900;28;89244;-85
2022/03/09 00:11:23;;;;;;;;;;;6.70;99.90;7.20;99961.00;;;;347006;28;83373;-85
2022/03/09 00:11:34;;;;;;;;;;;6.70;99.90;7.20;99957.00;;;;345580;28;89308;-85
2022/03/09 00:11:46;;;;;;;;;;;6.70;99.90;7.20;99956.00;;;;345966;28;83425;-85
2022/03/09 00:11:58;;;;;;;;;;;6.60;99.90;7.20;99954.00;;;;348222;27;92308;-85
2022/03/09 00:12:10;;;;;;;;;;;6.60;99.90;7.20;99958.00;;;;347334;28;83214;-85
2022/03/09 00:12:22;;;;;;;;;;;6.70;99.90;7.20;99960.00;;;;346980;28;89494;-85
2022/03/09 00:12:34;;;;;;;;;;;6.60;99.90;7.20;99955.00;;;;347197;28;83388;-84
2022/03/09 00:12:46;;;;;;;;;;;6.60;99.90;7.10;99958.00;;;;348265;27;90372;-84
2022/03/09 00:12:58;;;;;;;;;;;6.60;99.90;7.10;99958.00;;;;348696;27;84154;-85
2022/03/09 00:13:10;;;;;;;;;;;6.70;99.90;7.10;99964.00;;;;346941;28;88896;-85
2022/03/09 00:13:22;;;;;;;;;;;6.70;99.90;7.10;99958.00;;;;347198;28;83267;-85
2022/03/09 00:13:34;;;;;;;;;;;6.60;99.90;7.10;99960.00;;;;345885;28;92555;-85
2022/03/09 00:13:46;;;;;;;;;;;6.70;99.90;7.10;99951.00;;;;347037;28;83420;-85
2022/03/09 00:13:58;;;;;;;;;;;6.60;99.90;7.10;99950.00;;;;346827;27;89236;-85
2022/03/09 00:14:10;;;;;;;;;;;6.70;99.90;7.20;99955.00;;;;348785;27;83399;-85
2022/03/09 00:14:22;;;;;;;;;;;6.70;99.90;7.10;99958.00;;;;349758;27;87749;-85
2022/03/09 00:14:34;;;;;;;;;;;6.60;99.90;7.10;99955.00;;;;350045;27;83383;-85
2022/03/09 00:14:46;;;;;;;;;;;6.60;99.90;7.10;99965.00;;;;348951;27;93149;-85
2022/03/09 00:14:58;;;;;;;;;;;6.60;99.90;7.10;99958.00;;;;350069;27;83552;-85
2022/03/09 00:15:11;;;;;;;;;;;6.60;99.90;7.10;99960.00;;;;348280;27;89545;-85
2022/03/09 00:15:23;;;;;;;;;;;6.60;99.90;7.10;99957.00;;;;347255;28;83451;-85
2022/03/09 00:15:34;;;;;;;;;;;6.60;99.90;7.10;99954.00;;;;345618;28;89139;-85
2022/03/09 00:15:46;;;;;;;;;;;6.60;99.90;7.10;99952.00;;;;345952;28;83393;-85
2022/03/09 00:15:58;;;;;;;;;;;6.60;99.90;7.10;99954.00;;;;345500;28;89196;-85
2022/03/09 00:16:11;;;;;;;;;;;6.60;99.90;7.10;99956.00;;;;347370;28;83340;-85
2022/03/09 00:16:24;;;;;;;;;;;6.60;99.90;7.10;99957.00;;;;346093;28;89484;-84
2022/03/09 00:16:36;;;;;;;;;;;6.60;99.90;7.10;99955.00;;;;347516;27;82584;-85
2022/03/09 00:17:08;;;;;;;;;;;6.60;99.90;7.20;99959.00;;;;346789;28;92363;-85
2022/03/09 00:17:20;;;;;;;;;;;6.60;99.90;7.20;99957.00;;;;345944;28;83431;-84
2022/03/09 00:17:32;;;;;;;;;;;6.60;99.90;7.10;99951.00;;;;345106;28;88031;-85
2022/03/09 00:17:43;;;;;;;;;;;6.60;99.90;7.10;99953.00;;;;346004;28;83345;-85
2022/03/09 00:17:55;;;;;;;;;;;6.60;99.90;7.10;99960.00;;;;345496;28;89492;-85
2022/03/09 00:18:07;;;;;;;;;;;6.60;99.90;7.20;99953.00;;;;344613;28;82384;-84
2022/03/09 00:18:19;;;;;;;;;;;6.60;99.90;7.10;99954.00;;;;344204;28;89268;-84
2022/03/09 00:18:31;;;;;;;;;;;6.60;99.90;7.10;99957.00;;;;344592;28;82435;-84
2022/03/09 00:18:43;;;;;;;;;;;6.60;99.90;7.10;99952.00;;;;344169;28;89418;-84
2022/03/09 00:18:54;;;;;;;;;;;6.60;99.90;7.10;99957.00;;;;344553;28;83291;-84
2022/03/09 00:19:06;;;;;;;;;;;6.60;99.90;7.10;99952.00;;;;345503;28;88275;-84
2022/03/09 00:19:18;;;;;;;;;;;6.60;99.90;7.10;99947.00;;;;346017;28;82375;-84
2022/03/09 00:19:30;;;;;;;;;;;6.60;99.90;7.10;99950.00;;;;344969;28;89173;-84
2022/03/09 00:19:41;;;;;;;;;;;6.60;99.90;7.20;99950.00;;;;345885;28;82500;-84
2022/03/09 00:19:53;;;;;;;;;;;6.60;99.90;7.20;99958.00;;;;343831;28;88324;-84
2022/03/09 00:20:06;;;;;;;;;;;6.60;99.90;7.10;99952.00;;;;345692;28;83415;-84
2022/03/09 00:20:18;;;;;;;;;;;6.60;99.90;7.10;99957.00;;;;345596;28;89083;-84
2022/03/09 00:20:29;;;;;;;;;;;6.60;99.90;7.20;99963.00;;;;346544;28;83532;-84
2022/03/09 00:20:41;;;;;;;;;;;6.60;99.90;7.20;99954.00;;;;346900;28;88449;-84
2022/03/09 00:20:53;;;;;;;;;;;6.60;99.90;7.10;99957.00;;;;347314;28;83440;-84
2022/03/09 00:21:05;;;;;;;;;;;6.60;99.90;7.10;99962.00;;;;345432;28;90544;-84
2022/03/09 00:21:17;;;;;;;;;;;6.60;99.90;7.10;99956.00;;;;346424;28;83289;-84
2022/03/09 00:21:29;;;;;;;;;;;6.60;99.90;7.10;99962.00;;;;345546;28;89159;-84
2022/03/09 00:21:40;;;;;;;;;;;6.60;99.90;7.10;99955.00;;;;346024;28;83338;-84
2022/03/09 00:21:52;;;;;;;;;;;6.60;99.90;7.20;99962.00;;;;345478;28;90232;-84
2022/03/09 00:22:04;;;;;;;;;;;6.60;99.90;7.20;99960.00;;;;345835;28;83545;-84
2022/03/09 00:22:16;;;;;;;;;;;6.60;99.90;7.10;99956.00;;;;344233;28;89438;-84
2022/03/09 00:22:27;;;;;;;;;;;6.60;99.90;7.10;99951.00;;;;346106;28;83561;-84
2022/03/09 00:22:40;;;;;;;;;;;6.60;99.90;7.20;99953.00;;;;344248;28;89259;-84
2022/03/09 00:22:52;;;;;;;;;;;6.60;99.90;7.10;99953.00;;;;345935;28;83481;-84
2022/03/09 00:23:04;;;;;;;;;;;6.60;99.90;7.20;99960.00;;;;345411;28;90429;-84
2022/03/09 00:23:16;;;;;;;;;;;6.60;99.90;7.10;99959.00;;;;346007;28;83410;-84
2022/03/09 00:23:28;;;;;;;;;;;6.60;99.90;7.10;99956.00;;;;346054;28;89455;-84
2022/03/09 00:23:40;;;;;;;;;;;6.60;99.90;7.10;99962.00;;;;347423;28;83276;-84
2022/03/09 00:23:51;;;;;;;;;;;6.60;99.90;7.10;99962.00;;;;345388;28;90415;-84
2022/03/09 00:24:04;;;;;;;;;;;6.60;99.90;7.10;99966.00;;;;345887;28;83587;-84
2022/03/09 00:24:17;;;;;;;;;;;6.60;99.90;7.10;99960.00;;;;345581;28;89329;-84
2022/03/09 00:24:29;;;;;;;;;;;6.60;99.90;7.00;99959.00;;;;347363;28;83270;-84
2022/03/09 00:24:42;;;;;;;;;;;6.60;99.90;7.10;99958.00;;;;345403;28;91284;-84
2022/03/09 00:24:53;;;;;;;;;;;6.60;99.90;7.10;99957.00;;;;345954;28;83420;-84
2022/03/09 00:25:05;;;;;;;;;;;6.60;99.90;7.10;99960.00;;;;345371;28;90600;-84
2022/03/09 00:25:17;;;;;;;;;;;6.60;99.90;7.10;99964.00;;;;345891;28;83381;-84
2022/03/09 00:25:29;;;;;;;;;;;6.60;99.90;7.10;99960.00;;;;345006;28;89542;-84
2022/03/09 00:25:40;;;;;;;;;;;6.60;99.90;7.20;99954.00;;;;345843;28;83448;-84
2022/03/09 00:25:52;;;;;;;;;;;6.60;99.90;7.20;99961.00;;;;344005;28;89461;-84
2022/03/09 00:26:04;;;;;;;;;;;6.60;99.90;7.20;99956.00;;;;344551;28;83372;-84
2022/03/09 00:26:16;;;;;;;;;;;6.60;99.90;7.10;99957.00;;;;344179;28;89505;-84
2022/03/09 00:26:28;;;;;;;;;;;6.60;99.90;7.20;99957.00;;;;344184;28;82562;-84
2022/03/09 00:26:41;;;;;;;;;;;6.60;99.90;7.20;99955.00;;;;345463;28;89767;-84
2022/03/09 00:26:52;;;;;;;;;;;6.60;99.90;7.20;99956.00;;;;347261;28;83452;-84
2022/03/09 00:27:04;;;;;;;;;;;6.60;99.90;7.20;99951.00;;;;346847;28;90045;-84
2022/03/09 00:27:16;;;;;;;;;;;6.60;99.90;7.10;99962.00;;;;347273;28;82476;-84
2022/03/09 00:27:29;;;;;;;;;;;6.60;99.90;7.20;99960.00;;;;346942;28;89011;-84
2022/03/09 00:27:41;;;;;;;;;;;6.60;99.90;7.20;99958.00;;;;347362;28;83346;-84
2022/03/09 00:27:53;;;;;;;;;;;6.60;99.90;7.20;99951.00;;;;344149;28;88738;-84
2022/03/09 00:28:05;;;;;;;;;;;6.60;99.90;7.30;99953.00;;;;344576;28;83312;-84
2022/03/09 00:28:17;;;;;;;;;;;6.60;99.90;7.20;99957.00;;;;347038;28;89111;-84
2022/03/09 00:28:29;;;;;;;;;;;6.60;99.90;7.20;99964.00;;;;346816;28;83599;-84
2022/03/09 00:28:45;;;;;;;;;;;6.60;99.90;7.10;99961.00;;;;346754;28;89483;-84
2022/03/09 00:28:57;;;;;;;;;;;6.60;99.90;7.10;99955.00;;;;346006;28;82655;-84
2022/03/09 00:29:09;;;;;;;;;;;6.60;99.90;7.10;99962.00;;;;343996;28;91883;-83
2022/03/09 00:29:21;;;;;;;;;;;6.60;99.90;7.20;99968.00;;;;346032;28;83292;-84
2022/03/09 00:29:33;;;;;;;;;;;6.60;99.90;7.20;99959.00;;;;346653;28;88995;-84
2022/03/09 00:29:44;;;;;;;;;;;6.60;99.90;7.10;99952.00;;;;347023;28;83443;-84
2022/03/09 00:29:56;;;;;;;;;;;6.60;99.90;7.10;99961.00;;;;346750;27;91148;-84
2022/03/09 00:30:09;;;;;;;;;;;6.60;99.90;7.10;99959.00;;;;345868;28;83379;-84
2022/03/09 00:30:20;;;;;;;;;;;6.60;99.90;7.10;99957.00;;;;345567;28;89706;-84
2022/03/09 00:30:32;;;;;;;;;;;6.60;99.90;7.10;99968.00;;;;347327;28;83386;-84
2022/03/09 00:30:44;;;;;;;;;;;6.60;99.90;7.00;99962.00;;;;346954;28;86861;-84
2022/03/09 00:30:56;;;;;;;;;;;6.60;99.90;7.10;99953.00;;;;347291;28;82333;-84
2022/03/09 00:31:08;;;;;;;;;;;6.60;99.90;7.00;99961.00;;;;346711;28;91971;-83
2022/03/09 00:31:20;;;;;;;;;;;6.60;99.90;7.00;99961.00;;;;344578;28;83329;-84
2022/03/09 00:31:32;;;;;;;;;;;6.60;99.90;7.10;99957.00;;;;346529;28;89452;-84
2022/03/09 00:31:44;;;;;;;;;;;6.60;99.90;7.00;99962.00;;;;347389;28;83265;-84
2022/03/09 00:31:55;;;;;;;;;;;6.60;99.90;7.10;99965.00;;;;345341;28;89484;-84
2022/03/09 00:32:08;;;;;;;;;;;6.60;99.90;7.10;99961.00;;;;345944;28;83422;-84
2022/03/09 00:32:20;;;;;;;;;;;6.60;99.90;7.10;99959.00;;;;345549;28;89983;-84
2022/03/09 00:32:32;;;;;;;;;;;6.60;99.90;7.10;99958.00;;;;346177;28;83370;-84
2022/03/09 00:32:44;;;;;;;;;;;6.60;99.90;7.00;99953.00;;;;344221;28;89166;-84
2022/03/09 00:32:55;;;;;;;;;;;6.50;99.90;7.00;99962.00;;;;344592;28;83442;-84
2022/03/09 00:33:07;;;;;;;;;;;6.60;99.90;7.00;99946.00;;;;344077;28;90353;-84
2022/03/09 00:33:19;;;;;;;;;;;6.60;99.90;7.00;99954.00;;;;344441;28;83476;-84
2022/03/09 00:33:31;;;;;;;;;;;6.50;99.90;7.00;99959.00;;;;343877;28;90707;-84
2022/03/09 00:33:42;;;;;;;;;;;6.50;99.90;7.10;99965.00;;;;344611;28;83459;-84
2022/03/09 00:33:54;;;;;;;;;;;6.50;99.90;7.00;99965.00;;;;345467;28;89211;-84
2022/03/09 00:34:06;;;;;;;;;;;6.60;99.90;7.00;99958.00;;;;348777;27;83303;-84
2022/03/09 00:34:18;;;;;;;;;;;6.50;99.90;7.00;99966.00;;;;346808;28;91049;-84
2022/03/09 00:34:29;;;;;;;;;;;6.50;99.90;7.00;99962.00;;;;346486;28;83562;-84
2022/03/09 00:34:41;;;;;;;;;;;6.50;99.90;7.00;99978.00;;;;346762;28;89103;-84
2022/03/09 00:34:53;;;;;;;;;;;6.50;99.90;7.00;99964.00;;;;347294;28;83367;-84
2022/03/09 00:35:06;;;;;;;;;;;6.50;99.90;7.00;99965.00;;;;346847;28;90472;-84
2022/03/09 00:35:20;;;;;;;;;;;6.50;99.90;7.10;99966.00;;;;345971;28;83509;-84
2022/03/09 00:35:32;;;;;;;;;;;6.50;99.90;7.10;99965.00;;;;345414;28;89571;-84
2022/03/09 00:35:44;;;;;;;;;;;6.50;99.90;7.10;99967.00;;;;344590;28;83330;-84
2022/03/09 00:35:56;;;;;;;;;;;6.50;99.90;7.00;99965.00;;;;345441;28;88129;-84
2022/03/09 00:36:07;;;;;;;;;;;6.50;99.90;7.00;99968.00;;;;344557;28;83349;-84
2022/03/09 00:36:20;;;;;;;;;;;6.50;99.90;7.00;99966.00;;;;344205;28;89109;-84
2022/03/09 00:36:31;;;;;;;;;;;6.50;99.90;7.00;99971.00;;;;344455;28;83565;-84
2022/03/09 00:36:43;;;;;;;;;;;6.50;99.90;7.00;99965.00;;;;344153;28;88197;-84
2022/03/09 00:36:55;;;;;;;;;;;6.50;99.90;7.00;99972.00;;;;344650;28;83342;-84
2022/03/09 00:37:07;;;;;;;;;;;6.50;99.90;7.00;99970.00;;;;345172;28;90375;-84
2022/03/09 00:37:18;;;;;;;;;;;6.50;99.90;7.00;99968.00;;;;345940;28;83392;-84
2022/03/09 00:37:30;;;;;;;;;;;6.50;99.90;7.00;99967.00;;;;346292;28;89256;-84
2022/03/09 00:37:42;;;;;;;;;;;6.50;99.90;7.00;99963.00;;;;347263;28;83403;-84
2022/03/09 00:37:54;;;;;;;;;;;6.50;99.90;7.00;99965.00;;;;346548;28;89409;-84
2022/03/09 00:38:06;;;;;;;;;;;6.50;99.90;7.00;99964.00;;;;345938;28;83504;-84
2022/03/09 00:38:17;;;;;;;;;;;6.50;99.90;7.00;99970.00;;;;345553;28;89435;-84
2022/03/09 00:38:29;;;;;;;;;;;6.50;99.90;7.00;99968.00;;;;347198;28;83999;-84
2022/03/09 00:38:41;;;;;;;;;;;6.50;99.90;7.00;99971.00;;;;346916;28;89510;-84
2022/03/09 00:38:53;;;;;;;;;;;6.50;99.90;7.00;99975.00;;;;348699;27;83524;-84
2022/03/09 00:39:04;;;;;;;;;;;6.50;99.90;7.00;99978.00;;;;346871;28;88991;-84
2022/03/09 00:39:17;;;;;;;;;;;6.50;99.90;7.00;99979.00;;;;348658;27;83379;-84
2022/03/09 00:39:29;;;;;;;;;;;6.50;99.90;6.90;99972.00;;;;348328;27;89478;-83
2022/03/09 00:39:41;;;;;;;;;;;6.40;99.90;6.90;99979.00;;;;347348;28;83517;-84
2022/03/09 00:39:52;;;;;;;;;;;6.40;99.90;7.00;99968.00;;;;346875;27;89193;-84
2022/03/09 00:40:05;;;;;;;;;;;6.50;99.90;7.00;99981.00;;;;348701;27;82431;-84
2022/03/09 00:40:18;;;;;;;;;;;6.40;99.90;7.00;99977.00;;;;346846;28;92556;-84
2022/03/09 00:40:30;;;;;;;;;;;6.40;99.90;7.00;99980.00;;;;346519;28;83406;-84
2022/03/09 00:40:41;;;;;;;;;;;6.50;99.90;7.00;99968.00;;;;345193;28;89429;-84
2022/03/09 00:40:53;;;;;;;;;;;6.40;99.90;7.00;99981.00;;;;346913;28;82504;-84
2022/03/09 00:41:05;;;;;;;;;;;6.40;99.90;7.00;99975.00;;;;346652;28;92888;-84
2022/03/09 00:41:18;;;;;;;;;;;6.40;99.90;7.00;99987.00;;;;345790;28;83378;-84
2022/03/09 00:41:30;;;;;;;;;;;6.40;99.90;6.90;99978.00;;;;345394;28;91201;-84
2022/03/09 00:41:41;;;;;;;;;;;6.40;99.90;7.00;99981.00;;;;346018;28;83341;-84
2022/03/09 00:41:53;;;;;;;;;;;6.40;99.90;7.10;99986.00;;;;346844;28;89251;-84
2022/03/09 00:42:05;;;;;;;;;;;6.40;99.90;7.00;99977.00;;;;347268;28;84350;-84
2022/03/09 00:42:18;;;;;;;;;;;6.40;99.90;6.90;99980.00;;;;346864;28;88501;-84
2022/03/09 00:42:35;;;;;;;;;;;6.40;99.90;6.90;99987.00;;;;345944;28;83361;-84
2022/03/09 00:42:47;;;;;;;;;;;6.40;99.90;6.90;99984.00;;;;345527;28;89556;-84
2022/03/09 00:42:59;;;;;;;;;;;6.40;99.90;6.90;99982.00;;;;347392;28;83369;-84
2022/03/09 00:43:11;;;;;;;;;;;6.40;99.90;7.00;99981.00;;;;346758;28;90613;-84
2022/03/09 00:43:27;;;;;;;;;;;6.40;99.90;6.90;99990.00;;;;346493;28;83606;-84
2022/03/09 00:43:39;;;;;;;;;;;6.40;99.90;6.90;99984.00;;;;345641;28;88309;-84
2022/03/09 00:43:50;;;;;;;;;;;6.40;99.90;6.90;99985.00;;;;347279;28;83391;-84
2022/03/09 00:44:03;;;;;;;;;;;6.40;99.90;7.00;99990.00;;;;345455;28;92330;-84
2022/03/09 00:44:15;;;;;;;;;;;6.40;99.90;6.90;99990.00;;;;345888;28;83439;-85
2022/03/09 00:44:26;;;;;;;;;;;6.40;99.90;6.90;99988.00;;;;347087;27;90928;-84
2022/03/09 00:44:38;;;;;;;;;;;6.40;99.90;7.00;99989.00;;;;347271;28;82443;-84
2022/03/09 00:44:50;;;;;;;;;;;6.40;99.90;6.90;99992.00;;;;348301;27;89776;-84
2022/03/09 00:45:03;;;;;;;;;;;6.40;99.90;6.90;99990.00;;;;348689;27;83368;-84
2022/03/09 00:45:14;;;;;;;;;;;6.40;99.90;6.90;99993.00;;;;348178;27;91203;-84
2022/03/09 00:45:26;;;;;;;;;;;6.40;99.90;6.90;99987.00;;;;347283;28;83534;-84
2022/03/09 00:45:38;;;;;;;;;;;6.40;99.90;7.00;99992.00;;;;346985;28;88768;-84
2022/03/09 00:45:50;;;;;;;;;;;6.40;99.90;7.00;99987.00;;;;345900;28;83370;-84
2022/03/09 00:46:02;;;;;;;;;;;6.40;99.90;7.00;99982.00;;;;345523;28;89428;-84
2022/03/09 00:46:14;;;;;;;;;;;6.40;99.90;6.90;99986.00;;;;345966;28;83416;-84
2022/03/09 00:46:26;;;;;;;;;;;6.40;99.90;6.90;99990.00;;;;345359;28;89150;-84
2022/03/09 00:46:38;;;;;;;;;;;6.40;99.90;6.90;99990.00;;;;346165;28;83597;-84
2022/03/09 00:46:50;;;;;;;;;;;6.40;99.90;6.90;99987.00;;;;346939;28;89709;-84
2022/03/09 00:47:03;;;;;;;;;;;6.40;99.90;6.90;99989.00;;;;344458;28;82592;-84
2022/03/09 00:47:15;;;;;;;;;;;6.40;99.90;6.90;99992.00;;;;346501;28;90653;-84
2022/03/09 00:47:26;;;;;;;;;;;6.40;99.90;6.90;99981.00;;;;347030;28;83399;-84
2022/03/09 00:47:38;;;;;;;;;;;6.40;99.90;6.90;99997.00;;;;348332;27;89359;-84
2022/03/09 00:47:50;;;;;;;;;;;6.40;99.90;7.00;99994.00;;;;345886;28;83358;-84
2022/03/09 00:48:02;;;;;;;;;;;6.40;99.90;6.90;99984.00;;;;346849;28;88062;-85
2022/03/09 00:48:14;;;;;;;;;;;6.40;99.90;6.90;99981.00;;;;348648;27;83468;-84
2022/03/09 00:48:25;;;;;;;;;;;6.40;99.90;6.90;99990.00;;;;346839;28;89047;-84
2022/03/09 00:48:38;;;;;;;;;;;6.40;99.90;6.90;99994.00;;;;347254;28;83503;-84
2022/03/09 00:48:50;;;;;;;;;;;6.40;99.90;6.90;99993.00;;;;345471;28;90342;-84
2022/03/09 00:49:02;;;;;;;;;;;6.40;99.90;6.90;99987.00;;;;345995;28;83370;-84
2022/03/09 00:49:14;;;;;;;;;;;6.40;99.90;6.90;99992.00;;;;346692;28;91597;-84
2022/03/09 00:49:27;;;;;;;;;;;6.40;99.90;6.90;99990.00;;;;346859;28;83607;-84
2022/03/09 00:49:39;;;;;;;;;;;6.40;99.90;6.90;99990.00;;;;347028;27;88108;-84
2022/03/09 00:49:50;;;;;;;;;;;6.40;99.90;6.90;99989.00;;;;348588;27;82983;-84
2022/03/09 00:50:03;;;;;;;;;;;6.40;99.90;6.90;99982.00;;;;348182;27;92451;-84
2022/03/09 00:50:15;;;;;;;;;;;6.40;99.90;7.00;99991.00;;;;348678;27;83486;-84
2022/03/09 00:50:27;;;;;;;;;;;6.40;99.90;7.00;99992.00;;;;345310;28;92272;-84
2022/03/09 00:50:39;;;;;;;;;;;6.40;99.90;6.90;99993.00;;;;345922;28;82503;-84
2022/03/09 00:50:50;;;;;;;;;;;6.40;99.90;6.90;99989.00;;;;344147;28;89262;-84
2022/03/09 00:51:02;;;;;;;;;;;6.40;99.90;6.90;99988.00;;;;344619;28;83384;-84
2022/03/09 00:51:14;;;;;;;;;;;6.40;99.90;6.80;99983.00;;;;343890;28;91396;-84
2022/03/09 00:51:27;;;;;;;;;;;6.40;99.90;6.80;99989.00;;;;344442;28;83384;-84
2022/03/09 00:51:39;;;;;;;;;;;6.30;99.90;6.90;99987.00;;;;345519;28;91607;-84
2022/03/09 00:51:51;;;;;;;;;;;6.40;99.90;6.90;99992.00;;;;345872;28;83265;-85
2022/03/09 00:52:03;;;;;;;;;;;6.30;99.90;7.00;99995.00;;;;344057;28;93048;-84
2022/03/09 00:52:15;;;;;;;;;;;6.40;99.90;7.00;99995.00;;;;344570;28;83415;-84
2022/03/09 00:52:26;;;;;;;;;;;6.40;99.90;7.00;99999.00;;;;345101;28;89084;-84
2022/03/09 00:52:38;;;;;;;;;;;6.40;99.90;7.00;99996.00;;;;346156;28;83446;-85
2022/03/09 00:52:50;;;;;;;;;;;6.40;99.90;7.00;99995.00;;;;345518;28;89456;-84
2022/03/09 00:53:02;;;;;;;;;;;6.40;99.90;6.90;99986.00;;;;344547;28;83367;-84
2022/03/09 00:53:14;;;;;;;;;;;6.40;99.90;6.90;99993.00;;;;343563;28;90610;-84
2022/03/09 00:53:25;;;;;;;;;;;6.40;99.90;6.90;99990.00;;;;344698;28;83328;-84
2022/03/09 00:53:38;;;;;;;;;;;6.40;99.90;7.00;99984.00;;;;345589;28;89137;-84
2022/03/09 00:53:49;;;;;;;;;;;6.30;99.90;6.90;99987.00;;;;344529;28;83372;-84
2022/03/09 00:54:01;;;;;;;;;;;6.40;99.90;6.90;99986.00;;;;344168;28;88194;-84
2022/03/09 00:54:13;;;;;;;;;;;6.40;99.90;6.90;99991.00;;;;347356;28;83304;-84
2022/03/09 00:54:25;;;;;;;;;;;6.30;99.90;6.90;99991.00;;;;346920;28;89081;-84
2022/03/09 00:54:37;;;;;;;;;;;6.40;99.90;6.90;99992.00;;;;347216;28;83462;-84
2022/03/09 00:54:49;;;;;;;;;;;6.40;99.90;6.90;99989.00;;;;347018;28;88208;-84
2022/03/09 00:55:00;;;;;;;;;;;6.30;99.90;6.90;99992.00;;;;347612;28;83355;-84
2022/03/09 00:55:12;;;;;;;;;;;6.40;99.90;6.90;99994.00;;;;347023;28;90329;-84
2022/03/09 00:55:24;;;;;;;;;;;6.40;99.90;6.90;99990.00;;;;347177;28;83359;-84
2022/03/09 00:55:36;;;;;;;;;;;6.30;99.90;6.90;99989.00;;;;348349;27;88938;-84
2022/03/09 00:55:47;;;;;;;;;;;6.40;99.90;6.90;99995.00;;;;347605;28;83426;-84
2022/03/09 00:55:59;;;;;;;;;;;6.30;99.90;6.90;100000.00;;;;346782;28;88317;-84
2022/03/09 00:56:12;;;;;;;;;;;6.40;99.90;6.90;99995.00;;;;347633;28;82523;-84
2022/03/09 00:56:23;;;;;;;;;;;6.30;99.90;6.90;99998.00;;;;344196;28;92353;-84
2022/03/09 00:56:35;;;;;;;;;;;6.30;99.90;6.90;99996.00;;;;344742;28;84216;-84
2022/03/09 00:56:47;;;;;;;;;;;6.40;99.90;6.90;99991.00;;;;344393;28;89115;-84
2022/03/09 00:56:59;;;;;;;;;;;6.30;99.90;6.90;99990.00;;;;344542;28;83368;-84
2022/03/09 00:57:10;;;;;;;;;;;6.40;99.90;6.80;99992.00;;;;345644;28;90327;-84
2022/03/09 00:57:23;;;;;;;;;;;6.30;99.90;6.80;99993.00;;;;346084;28;82458;-84
2022/03/09 00:57:35;;;;;;;;;;;6.40;99.90;6.90;99994.00;;;;345716;28;89470;-84
2022/03/09 00:57:47;;;;;;;;;;;6.30;99.90;6.80;99993.00;;;;346220;28;82415;-84
2022/03/09 00:57:59;;;;;;;;;;;6.30;99.90;6.80;99990.00;;;;345664;28;88741;-84
2022/03/09 00:58:11;;;;;;;;;;;6.30;99.90;6.80;99999.00;;;;346100;28;82476;-84
2022/03/09 00:58:23;;;;;;;;;;;6.30;99.90;6.80;99997.00;;;;345277;28;91100;-84
2022/03/09 00:58:35;;;;;;;;;;;6.30;99.90;6.80;99993.00;;;;346927;27;82653;-84
2022/03/09 00:58:47;;;;;;;;;;;6.30;99.90;6.80;99986.00;;;;345648;28;91183;-84
2022/03/09 00:58:59;;;;;;;;;;;6.30;99.90;6.80;99993.00;;;;347172;28;83496;-84
2022/03/09 00:59:11;;;;;;;;;;;6.30;99.90;6.80;99994.00;;;;347013;28;90289;-84
2022/03/09 00:59:23;;;;;;;;;;;6.30;99.90;6.80;99989.00;;;;347450;28;83444;-84
2022/03/09 00:59:35;;;;;;;;;;;6.30;99.90;6.80;99983.00;;;;345760;28;88800;-84
2022/03/09 00:59:46;;;;;;;;;;;6.30;99.90;6.80;99995.00;;;;347639;28;82394;-84
2022/03/09 00:59:58;;;;;;;;;;;6.30;99.90;6.70;99995.00;;;;345732;28;91528;-83
2022/03/09 01:00:11;;;;;;;;;;;6.30;99.90;6.70;99990.00;;;;347561;28;83385;-84
2022/03/09 01:00:24;;;;;;;;;;;6.30;99.90;6.80;99996.00;;;;346991;28;89090;-84
2022/03/09 01:00:36;;;;;;;;;;;6.20;99.90;6.80;99989.00;;;;347335;28;82538;-84
2022/03/09 01:00:48;;;;;;;;;;;6.30;99.90;6.70;99988.00;;;;347157;28;89354;-84
2022/03/09 01:01:00;;;;;;;;;;;6.30;99.90;6.80;99996.00;;;;347625;28;83308;-84
2022/03/09 01:01:12;;;;;;;;;;;6.30;99.90;6.80;99993.00;;;;348512;27;90094;-84